Terminal Aerodrome Forecast
Issued by NWS Goodland, KS

Home | Current Version | Previous Version | Text Only | Print | Product List | Glossary On
Versions: 1 2 3 4 5 6 7 8 9 10 11 12 13 14 15 16
710
FTUS43 KGLD 192320
TAFGLD
TAF
KGLD 192320Z 2000/2024 13009KT 5SM BR OVC002
     FM200300 VRB05KT 1SM BR OVC002
     FM200600 VRB05KT 1/2SM FZFG OVC002
     FM201400 31005KT 1SM BR BKN005
     FM201500 33007KT 4SM BR SCT007
     FM201600 35008KT P6SM SCT250=

USA.gov is the U.S. government's official web portal to all federal, state and local government web resources and services.